createdAt,value
2018-05-02T00:02:25.921Z,100585
2018-05-02T00:04:54.215Z,100584
2018-05-02T00:07:22.548Z,100580
2018-05-02T00:09:51.021Z,100582
2018-05-02T00:12:19.440Z,100583
2018-05-02T00:14:47.940Z,100581
2018-05-02T00:17:16.277Z,100580
2018-05-02T00:19:44.575Z,100576
2018-05-02T00:22:12.865Z,100576
2018-05-02T00:24:41.182Z,100574
2018-05-02T00:27:10.261Z,100573
2018-05-02T00:29:38.627Z,100576
2018-05-02T00:32:07.916Z,100577
2018-05-02T00:34:36.242Z,100576
2018-05-02T00:37:04.635Z,100581
2018-05-02T00:39:32.938Z,100575
2018-05-02T00:42:01.507Z,100578
2018-05-02T00:44:29.823Z,100582
2018-05-02T00:46:58.220Z,100584
2018-05-02T00:49:27.401Z,100579
2018-05-02T00:51:55.702Z,100578
2018-05-02T00:54:24.798Z,100576
2018-05-02T00:56:54.014Z,100581
2018-05-02T00:59:22.302Z,100580
2018-05-02T01:01:50.608Z,100578
2018-05-02T01:04:19.021Z,100579
2018-05-02T01:06:48.111Z,100581
2018-05-02T01:09:17.957Z,100582
2018-05-02T01:11:46.352Z,100580
2018-05-02T01:14:14.672Z,100588
2018-05-02T01:16:43.080Z,100586
2018-05-02T01:19:11.421Z,100590
2018-05-02T01:21:39.732Z,100597
2018-05-02T01:24:08.186Z,100592
2018-05-02T01:26:36.771Z,100597
2018-05-02T01:29:05.071Z,100594
2018-05-02T01:31:34.318Z,100596
2018-05-02T01:34:02.602Z,100600
2018-05-02T01:36:30.965Z,100599
2018-05-02T01:38:59.299Z,100599
2018-05-02T01:41:28.361Z,100597
2018-05-02T01:43:57.506Z,100601
2018-05-02T01:46:25.857Z,100598
2018-05-02T01:49:12.587Z,100597
2018-05-02T01:51:40.852Z,100592
2018-05-02T01:54:11.055Z,100591
2018-05-02T01:56:40.135Z,100589
2018-05-02T01:59:08.415Z,100587
2018-05-02T02:01:36.825Z,100585
2018-05-02T02:04:05.876Z,100583
2018-05-02T02:06:34.257Z,100580
2018-05-02T02:09:02.671Z,100584
2018-05-02T02:11:30.982Z,100574
2018-05-02T02:13:59.237Z,100579
2018-05-02T02:16:27.653Z,100578
2018-05-02T02:18:55.931Z,100577
2018-05-02T02:21:24.392Z,100582
2018-05-02T02:23:52.718Z,100576
2018-05-02T02:26:21.037Z,100570
2018-05-02T02:28:49.450Z,100570
2018-05-02T02:31:17.872Z,100569
2018-05-02T02:33:46.987Z,100564
2018-05-02T02:36:15.275Z,100560
2018-05-02T02:38:43.633Z,100563
2018-05-02T02:41:12.034Z,100555
2018-05-02T02:43:40.547Z,100557
2018-05-02T02:46:08.963Z,100558
2018-05-02T02:48:38.116Z,100548
2018-05-02T02:51:06.517Z,100550
2018-05-02T02:53:34.808Z,100551
2018-05-02T02:56:03.195Z,100548
2018-05-02T02:58:31.557Z,100550
2018-05-02T03:01:00.101Z,100545
2018-05-02T03:03:28.658Z,100546
2018-05-02T03:05:56.974Z,100545
2018-05-02T03:08:25.280Z,100540
2018-05-02T03:10:54.478Z,100538
2018-05-02T03:13:23.552Z,100540
2018-05-02T03:15:51.941Z,100537
2018-05-02T03:18:20.264Z,100535
2018-05-02T03:20:48.962Z,100535
2018-05-02T03:23:17.486Z,100535
2018-05-02T03:25:45.826Z,100529
2018-05-02T03:28:14.106Z,100534
2018-05-02T03:30:42.418Z,100539
2018-05-02T03:33:11.511Z,100541
2018-05-02T03:35:39.803Z,100543
2018-05-02T03:38:08.838Z,100544
2018-05-02T03:40:37.118Z,100552
2018-05-02T03:43:05.408Z,100549
2018-05-02T03:45:33.703Z,100544
2018-05-02T03:48:01.988Z,100547
2018-05-02T03:50:30.701Z,100543
2018-05-02T03:52:58.961Z,100551
2018-05-02T03:55:28.202Z,100551
2018-05-02T03:57:56.608Z,100554
2018-05-02T04:00:42.741Z,100552
2018-05-02T04:03:29.507Z,100554
2018-05-02T04:09:07.021Z,100559
2018-05-02T04:11:35.327Z,100565
2018-05-02T04:14:04.519Z,100567
2018-05-02T04:16:32.868Z,100567
2018-05-02T04:19:01.256Z,100570
2018-05-02T04:21:29.681Z,100570
2018-05-02T04:23:58.245Z,100569
2018-05-02T04:26:27.300Z,100576
2018-05-02T04:28:55.691Z,100571
2018-05-02T04:31:23.954Z,100576
2018-05-02T04:33:52.492Z,100583
2018-05-02T04:36:21.662Z,100577
2018-05-02T04:38:51.848Z,100577
2018-05-02T04:41:20.117Z,100586
2018-05-02T04:43:48.392Z,100588
2018-05-02T04:46:16.677Z,100594
2018-05-02T04:48:44.946Z,100598
2018-05-02T04:51:13.262Z,100602
2018-05-02T04:53:41.591Z,100593
2018-05-02T04:56:09.936Z,100596
2018-05-02T04:58:39.143Z,100595
2018-05-02T05:01:08.371Z,100591
2018-05-02T05:03:36.744Z,100597
2018-05-02T05:06:05.081Z,100597
2018-05-02T05:08:34.432Z,100603
2018-05-02T05:11:02.727Z,100606
2018-05-02T05:13:31.018Z,100608
2018-05-02T05:15:59.422Z,100611
2018-05-02T05:18:28.588Z,100610
2018-05-02T05:20:57.954Z,100618
2018-05-02T05:23:26.303Z,100612
2018-05-02T05:25:54.637Z,100618
2018-05-02T05:28:23.041Z,100612
2018-05-02T05:30:52.252Z,100612
2018-05-02T05:33:21.392Z,100609
2018-05-02T05:35:49.929Z,100610
2018-05-02T05:38:19.029Z,100615
2018-05-02T05:40:47.418Z,100609
2018-05-02T05:43:15.709Z,100609
2018-05-02T05:45:44.004Z,100607
2018-05-02T05:48:12.369Z,100603
2018-05-02T05:50:40.677Z,100605
2018-05-02T05:53:08.967Z,100602
2018-05-02T05:55:37.579Z,100600
2018-05-02T05:58:06.811Z,100601
2018-05-02T06:00:35.094Z,100600
2018-05-02T06:03:03.483Z,100601
2018-05-02T06:05:31.909Z,100602
2018-05-02T06:08:00.337Z,100611
2018-05-02T06:10:29.427Z,100607
2018-05-02T06:12:57.742Z,100605
2018-05-02T06:15:26.814Z,100603
2018-05-02T06:17:55.190Z,100606
2018-05-02T06:20:23.634Z,100604
2018-05-02T06:22:51.937Z,100603
2018-05-02T06:25:20.404Z,100604
2018-05-02T06:27:48.679Z,100600
2018-05-02T06:30:17.034Z,100602
2018-05-02T06:32:46.119Z,100598
2018-05-02T06:35:14.612Z,100599
2018-05-02T06:37:43.074Z,100603
2018-05-02T06:40:11.392Z,100595
2018-05-02T06:42:39.668Z,100594
2018-05-02T06:45:07.974Z,100597
2018-05-02T06:47:36.282Z,100592
2018-05-02T06:50:05.351Z,100588
2018-05-02T06:52:33.659Z,100591
2018-05-02T06:55:02.829Z,100593
2018-05-02T06:57:31.162Z,100586
2018-05-02T06:59:59.578Z,100587
2018-05-02T07:02:28.910Z,100581
2018-05-02T07:04:58.055Z,100576
2018-05-02T07:07:26.668Z,100579
2018-05-02T07:09:55.755Z,100580
2018-05-02T07:12:24.135Z,100584
2018-05-02T07:14:52.503Z,100574
2018-05-02T07:17:20.805Z,100582
2018-05-02T07:19:50.123Z,100577
2018-05-02T07:22:18.471Z,100577
2018-05-02T07:24:46.807Z,100579
2018-05-02T07:27:15.122Z,100577
2018-05-02T07:29:43.561Z,100576
2018-05-02T07:32:11.903Z,100577
2018-05-02T07:34:41.005Z,100578
2018-05-02T07:37:10.059Z,100579
2018-05-02T07:39:38.410Z,100577
2018-05-02T07:42:06.734Z,100576
2018-05-02T07:44:35.968Z,100578
2018-05-02T07:47:04.603Z,100575
2018-05-02T07:49:32.973Z,100579
2018-05-02T07:52:01.293Z,100581
2018-05-02T07:54:29.772Z,100569
2018-05-02T07:56:58.174Z,100571
2018-05-02T07:59:26.553Z,100570
2018-05-02T08:01:54.919Z,100568
2018-05-02T08:04:23.402Z,100567
2018-05-02T08:06:51.693Z,100560
2018-05-02T08:09:20.227Z,100561
2018-05-02T08:11:48.592Z,100563
2018-05-02T08:14:17.239Z,100562
2018-05-02T08:16:45.513Z,100564
2018-05-02T08:19:13.870Z,100555
2018-05-02T08:21:42.193Z,100549
2018-05-02T08:24:10.585Z,100544
2018-05-02T08:26:39.097Z,100534
2018-05-02T08:29:07.551Z,100547
2018-05-02T08:31:36.060Z,100544
2018-05-02T08:34:05.153Z,100553
2018-05-02T08:36:34.353Z,100553
2018-05-02T08:39:03.466Z,100542
2018-05-02T08:41:31.909Z,100534
2018-05-02T08:44:01.089Z,100535
2018-05-02T08:46:29.543Z,100533
2018-05-02T08:48:57.871Z,100531
2018-05-02T08:51:26.414Z,100531
2018-05-02T08:53:54.929Z,100524
2018-05-02T08:56:23.284Z,100521
2018-05-02T08:58:51.708Z,100515
2018-05-02T09:01:20.144Z,100513
2018-05-02T09:03:49.017Z,100524
2018-05-02T09:06:18.230Z,100521
2018-05-02T09:08:46.712Z,100506
2018-05-02T09:11:16.014Z,100507
2018-05-02T09:13:44.314Z,100498
2018-05-02T09:16:13.452Z,100497
2018-05-02T09:18:41.829Z,100498
2018-05-02T09:21:10.443Z,100492
2018-05-02T09:23:38.964Z,100488
2018-05-02T09:26:08.083Z,100483
2018-05-02T09:28:36.448Z,100475
2018-05-02T09:31:04.735Z,100474
2018-05-02T09:33:33.147Z,100472
2018-05-02T09:36:01.570Z,100475
2018-05-02T09:38:30.703Z,100470
2018-05-02T09:40:59.038Z,100472
2018-05-02T09:43:29.144Z,100470
2018-05-02T09:45:57.644Z,100466
2018-05-02T09:48:26.719Z,100462
2018-05-02T09:50:55.193Z,100471
2018-05-02T09:53:23.555Z,100469
2018-05-02T09:55:51.850Z,100478
2018-05-02T09:58:20.286Z,100464
2018-05-02T10:00:48.654Z,100447
2018-05-02T10:03:16.983Z,100458
2018-05-02T10:05:45.498Z,100457
2018-05-02T10:08:13.959Z,100451
2018-05-02T10:10:42.324Z,100453
2018-05-02T10:13:10.710Z,100455
2018-05-02T10:15:40.931Z,100441
2018-05-02T10:18:10.015Z,100444
2018-05-02T10:20:38.349Z,100444
2018-05-02T10:23:06.659Z,100447
2018-05-02T10:25:34.953Z,100447
2018-05-02T10:28:03.337Z,100446
2018-05-02T10:30:32.435Z,100442
2018-05-02T10:33:01.632Z,100437
2018-05-02T10:35:30.690Z,100441
2018-05-02T10:37:59.038Z,100432
2018-05-02T10:40:27.368Z,100427
2018-05-02T10:42:55.680Z,100433
2018-05-02T10:45:24.095Z,100430
2018-05-02T10:47:52.419Z,100427
2018-05-02T10:50:21.713Z,100420
2018-05-02T10:52:50.283Z,100414
2018-05-02T10:55:18.696Z,100418
2018-05-02T10:57:47.812Z,100412
2018-05-02T11:00:16.306Z,100415
2018-05-02T11:02:44.588Z,100412
2018-05-02T11:05:13.124Z,100411
2018-05-02T11:07:42.221Z,100403
2018-05-02T11:10:11.490Z,100398
2018-05-02T11:12:39.948Z,100406
2018-05-02T11:15:08.301Z,100397
2018-05-02T11:17:36.677Z,100394
2018-05-02T11:20:04.974Z,100392
2018-05-02T11:22:33.319Z,100382
2018-05-02T11:25:02.429Z,100389
2018-05-02T11:27:30.768Z,100381
2018-05-02T11:29:59.104Z,100379
2018-05-02T11:32:27.409Z,100379
2018-05-02T11:34:55.814Z,100374
2018-05-02T11:37:24.891Z,100377
2018-05-02T11:39:53.258Z,100368
2018-05-02T11:42:21.569Z,100362
2018-05-02T11:44:50.879Z,100363
2018-05-02T11:47:19.384Z,100356
2018-05-02T11:49:47.740Z,100358
2018-05-02T11:52:16.028Z,100351
2018-05-02T11:54:44.341Z,100352
2018-05-02T11:57:12.664Z,100341
2018-05-02T11:59:41.021Z,100341
2018-05-02T12:02:10.129Z,100342
2018-05-02T12:04:39.370Z,100337
2018-05-02T12:07:07.779Z,100334
2018-05-02T12:09:36.115Z,100326
2018-05-02T12:12:04.511Z,100333
2018-05-02T12:14:33.060Z,100332
2018-05-02T12:17:01.399Z,100333
2018-05-02T12:19:29.900Z,100338
2018-05-02T12:21:59.048Z,100338
2018-05-02T12:24:28.085Z,100330
2018-05-02T12:26:57.465Z,100315
2018-05-02T12:29:25.823Z,100323
2018-05-02T12:31:54.260Z,100315
2018-05-02T12:34:22.660Z,100314
2018-05-02T12:36:51.159Z,100317
2018-05-02T12:39:19.455Z,100311
2018-05-02T12:41:47.900Z,100308
2018-05-02T12:44:16.193Z,100305
2018-05-02T12:46:44.568Z,100306
2018-05-02T12:49:13.301Z,100289
2018-05-02T12:51:41.674Z,100311
2018-05-02T12:54:10.889Z,100302
2018-05-02T12:56:40.039Z,100294
2018-05-02T12:59:08.331Z,100282
2018-05-02T13:01:36.839Z,100281
2018-05-02T13:04:06.026Z,100275
2018-05-02T13:06:35.146Z,100255
2018-05-02T13:09:03.445Z,100259
2018-05-02T13:11:31.898Z,100252
2018-05-02T13:14:00.288Z,100250
2018-05-02T13:16:29.848Z,100247
2018-05-02T13:18:58.376Z,100236
2018-05-02T13:21:26.691Z,100239
2018-05-02T13:23:55.275Z,100240
2018-05-02T13:26:23.700Z,100227
2018-05-02T13:28:52.251Z,100236
2018-05-02T13:31:22.100Z,100225
2018-05-02T13:33:50.666Z,100220
2018-05-02T13:36:19.884Z,100221
2018-05-02T13:38:48.236Z,100218
2018-05-02T13:41:17.403Z,100211
2018-05-02T13:43:45.737Z,100207
2018-05-02T13:46:14.156Z,100206
2018-05-02T13:48:42.445Z,100210
2018-05-02T13:51:11.670Z,100200
2018-05-02T13:53:40.853Z,100202
2018-05-02T13:56:10.007Z,100195
2018-05-02T13:58:38.471Z,100193
2018-05-02T14:01:06.979Z,100187
2018-05-02T14:03:35.317Z,100188
2018-05-02T14:06:03.624Z,100176
2018-05-02T14:08:32.018Z,100186
2018-05-02T14:11:00.296Z,100184
2018-05-02T14:13:28.650Z,100175
2018-05-02T14:15:57.028Z,100176
2018-05-02T14:18:25.309Z,100177
2018-05-02T14:20:53.660Z,100174
2018-05-02T14:23:22.145Z,100168
2018-05-02T14:25:50.541Z,100168
2018-05-02T14:28:19.009Z,100164
2018-05-02T14:30:47.339Z,100171
2018-05-02T14:33:15.686Z,100163
2018-05-02T14:35:43.981Z,100165
2018-05-02T14:38:12.478Z,100161
2018-05-02T14:40:40.858Z,100166
2018-05-02T14:43:09.274Z,100164
2018-05-02T14:45:37.604Z,100159
2018-05-02T14:48:07.725Z,100153
2018-05-02T14:50:36.116Z,100154
2018-05-02T14:53:04.541Z,100155
2018-05-02T14:55:33.004Z,100162
2018-05-02T14:58:01.561Z,100157
2018-05-02T15:00:30.681Z,100142
2018-05-02T15:02:59.114Z,100161
2018-05-02T15:05:27.688Z,100162
2018-05-02T15:07:56.155Z,100164
2018-05-02T15:10:24.811Z,100166
2018-05-02T15:12:53.181Z,100164
2018-05-02T15:15:22.310Z,100158
2018-05-02T15:17:50.710Z,100161
2018-05-02T15:20:19.316Z,100158
2018-05-02T15:22:47.640Z,100162
2018-05-02T15:25:16.423Z,100160
2018-05-02T15:27:44.782Z,100155
2018-05-02T15:30:13.919Z,100154
2018-05-02T15:32:42.395Z,100151
2018-05-02T15:35:10.797Z,100150
2018-05-02T15:37:39.135Z,100156
2018-05-02T15:40:07.702Z,100154
2018-05-02T15:42:36.847Z,100151
2018-05-02T15:45:05.188Z,100150
2018-05-02T15:47:33.571Z,100149
2018-05-02T15:50:01.870Z,100136
2018-05-02T15:52:31.664Z,100142
2018-05-02T15:55:00.121Z,100150
2018-05-02T15:57:28.461Z,100142
2018-05-02T15:59:56.780Z,100141
2018-05-02T16:02:26.007Z,100136
2018-05-02T16:04:54.383Z,100131
2018-05-02T16:07:22.725Z,100140
2018-05-02T16:09:52.031Z,100134
2018-05-02T16:12:21.969Z,100121
2018-05-02T16:14:50.805Z,100125
2018-05-02T16:17:19.142Z,100116
2018-05-02T16:19:47.743Z,100120
2018-05-02T16:22:16.200Z,100124
2018-05-02T16:24:44.750Z,100119
2018-05-02T16:27:14.105Z,100127
2018-05-02T16:29:42.478Z,100134
2018-05-02T16:32:14.773Z,100134
2018-05-02T16:34:43.142Z,100133
2018-05-02T16:37:11.625Z,100130
2018-05-02T16:39:41.414Z,100129
2018-05-02T16:42:09.801Z,100141
2018-05-02T16:44:38.124Z,100140
2018-05-02T16:47:07.230Z,100143
2018-05-02T16:49:36.372Z,100143
2018-05-02T16:52:04.772Z,100143
2018-05-02T16:54:33.171Z,100147
2018-05-02T16:57:01.696Z,100152
2018-05-02T16:59:30.064Z,100155
2018-05-02T17:02:00.487Z,100150
2018-05-02T17:04:29.056Z,100150
2018-05-02T17:06:57.354Z,100148
2018-05-02T17:09:26.054Z,100157
2018-05-02T17:11:54.326Z,100155
2018-05-02T17:14:22.675Z,100157
2018-05-02T17:16:51.282Z,100158
2018-05-02T17:19:20.597Z,100159
2018-05-02T17:21:49.182Z,100152
2018-05-02T17:24:18.022Z,100150
2018-05-02T17:26:46.670Z,100151
2018-05-02T17:29:15.053Z,100152
2018-05-02T17:31:43.537Z,100155
2018-05-02T17:34:11.906Z,100158
2018-05-02T17:36:40.744Z,100152
2018-05-02T17:39:09.172Z,100159
2018-05-02T17:41:37.631Z,100164
2018-05-02T17:44:06.260Z,100162
2018-05-02T17:46:34.796Z,100168
2018-05-02T17:49:03.270Z,100174
2018-05-02T17:51:31.958Z,100178
2018-05-02T17:54:00.375Z,100179
2018-05-02T17:56:29.112Z,100177
2018-05-02T17:58:57.696Z,100184
2018-05-02T18:01:26.207Z,100181
2018-05-02T18:03:54.642Z,100184
2018-05-02T18:06:23.970Z,100187
2018-05-02T18:08:52.335Z,100186
2018-05-02T18:11:20.916Z,100187
2018-05-02T18:13:56.085Z,100187
2018-05-02T18:16:24.441Z,100193
2018-05-02T18:18:52.915Z,100191
2018-05-02T18:21:21.755Z,100200
2018-05-02T18:23:50.087Z,100195
2018-05-02T18:26:18.451Z,100199
2018-05-02T18:28:47.658Z,100201
2018-05-02T18:31:16.178Z,100197
2018-05-02T18:33:44.716Z,100190
2018-05-02T18:36:13.273Z,100193
2018-05-02T18:38:43.197Z,100198
2018-05-02T18:41:12.437Z,100203
2018-05-02T18:43:40.998Z,100202
2018-05-02T18:46:09.521Z,100204
2018-05-02T18:48:37.898Z,100204
2018-05-02T18:51:06.425Z,100209
2018-05-02T18:53:35.638Z,100214
2018-05-02T18:56:03.964Z,100213
2018-05-02T18:58:32.335Z,100217
2018-05-02T19:01:01.571Z,100216
2018-05-02T19:03:30.203Z,100225
2018-05-02T19:05:58.800Z,100224
2018-05-02T19:08:27.238Z,100223
2018-05-02T19:10:55.945Z,100227
2018-05-02T19:13:24.451Z,100227
2018-05-02T19:15:53.040Z,100230
2018-05-02T19:18:27.040Z,100230
2018-05-02T19:20:55.386Z,100233
2018-05-02T19:23:23.759Z,100228
2018-05-02T19:25:57.568Z,100237
2018-05-02T19:28:25.977Z,100239
2018-05-02T19:31:00.086Z,100238
2018-05-02T19:33:34.025Z,100244
2018-05-02T19:36:02.398Z,100248
2018-05-02T19:38:30.794Z,100253
2018-05-02T19:41:05.408Z,100253
2018-05-02T19:43:39.262Z,100248
2018-05-02T19:46:07.743Z,100256
2018-05-02T19:48:36.213Z,100259
2018-05-02T19:51:11.095Z,100257
2018-05-02T19:53:39.421Z,100254
2018-05-02T19:56:08.770Z,100255
2018-05-02T19:58:37.235Z,100253
2018-05-02T20:01:11.159Z,100254
2018-05-02T20:03:39.816Z,100260
2018-05-02T20:06:08.237Z,100262
2018-05-02T20:08:42.171Z,100266
2018-05-02T20:11:16.150Z,100262
2018-05-02T20:13:50.355Z,100265
2018-05-02T20:16:18.779Z,100264
2018-05-02T20:18:47.501Z,100265
2018-05-02T20:21:15.933Z,100273
2018-05-02T20:23:44.363Z,100268
2018-05-02T20:26:12.849Z,100270
2018-05-02T20:28:41.198Z,100269
2018-05-02T20:31:09.516Z,100266
2018-05-02T20:33:37.881Z,100267
2018-05-02T20:36:08.172Z,100271
2018-05-02T20:38:38.499Z,100273
2018-05-02T20:41:06.878Z,100274
2018-05-02T20:43:35.682Z,100274
2018-05-02T20:46:04.055Z,100277
2018-05-02T20:48:32.410Z,100278
2018-05-02T20:51:01.479Z,100272
2018-05-02T20:53:29.843Z,100282
2018-05-02T20:55:58.193Z,100281
2018-05-02T20:58:26.572Z,100282
2018-05-02T21:00:55.258Z,100288
2018-05-02T21:03:23.613Z,100285
2018-05-02T21:05:52.010Z,100283
2018-05-02T21:08:21.303Z,100283
2018-05-02T21:10:49.821Z,100283
2018-05-02T21:13:18.324Z,100285
2018-05-02T21:15:46.698Z,100290
2018-05-02T21:18:15.055Z,100285
2018-05-02T21:20:43.410Z,100292
2018-05-02T21:23:11.901Z,100291
2018-05-02T21:25:40.441Z,100287
2018-05-02T21:28:09.566Z,100289
2018-05-02T21:30:38.119Z,100289
2018-05-02T21:33:07.202Z,100294
2018-05-02T21:35:36.541Z,100295
2018-05-02T21:38:04.967Z,100302
2018-05-02T21:40:33.498Z,100309
2018-05-02T21:43:02.031Z,100310
2018-05-02T21:45:30.473Z,100313
2018-05-02T21:47:58.818Z,100316
2018-05-02T21:50:27.922Z,100314
2018-05-02T21:52:56.257Z,100314
2018-05-02T21:55:24.667Z,100316
2018-05-02T21:57:53.760Z,100321
2018-05-02T22:00:22.881Z,100325
2018-05-02T22:02:51.276Z,100324
2018-05-02T22:05:19.694Z,100327
2018-05-02T22:07:48.052Z,100325
2018-05-02T22:10:16.346Z,100326
2018-05-02T22:12:45.021Z,100329
2018-05-02T22:15:13.360Z,100332
2018-05-02T22:17:41.661Z,100340
2018-05-02T22:20:10.093Z,100340
2018-05-02T22:22:38.576Z,100342
2018-05-02T22:25:07.927Z,100347
2018-05-02T22:27:36.317Z,100344
2018-05-02T22:30:04.645Z,100347
2018-05-02T22:32:32.939Z,100345
2018-05-02T22:35:01.282Z,100354
2018-05-02T22:37:30.341Z,100356
2018-05-02T22:39:58.672Z,100356
2018-05-02T22:42:27.013Z,100363
2018-05-02T22:44:55.367Z,100366
2018-05-02T22:47:23.739Z,100366
2018-05-02T22:49:52.022Z,100373
2018-05-02T22:52:20.462Z,100366
2018-05-02T22:54:49.063Z,100366
2018-05-02T22:57:17.371Z,100363
2018-05-02T22:59:45.849Z,100363
2018-05-02T23:02:14.187Z,100368
2018-05-02T23:04:42.552Z,100368
2018-05-02T23:07:10.838Z,100368
2018-05-02T23:09:39.149Z,100370
2018-05-02T23:12:07.740Z,100374
2018-05-02T23:14:36.050Z,100376
2018-05-02T23:17:04.457Z,100379
2018-05-02T23:19:33.016Z,100378
2018-05-02T23:22:02.149Z,100381
2018-05-02T23:24:30.622Z,100390
2018-05-02T23:26:59.156Z,100380
2018-05-02T23:29:27.481Z,100387
2018-05-02T23:31:55.772Z,100391
2018-05-02T23:34:24.123Z,100382
2018-05-02T23:36:52.495Z,100382
2018-05-02T23:39:20.824Z,100382
2018-05-02T23:41:49.988Z,100382
2018-05-02T23:44:18.291Z,100377
2018-05-02T23:46:46.738Z,100374
2018-05-02T23:49:15.029Z,100376
2018-05-02T23:51:43.551Z,100368
2018-05-02T23:54:11.942Z,100370
2018-05-02T23:56:41.158Z,100367
2018-05-02T23:59:09.460Z,100366
